sensor_id;sensor_type;location;lat;lon;timestamp;pressure;altitude;pressure_sealevel;temperature;humidity
47374;BME280;33123;50.118;10.272;2023-02-03T00:01:14;98534.16;;;7.85;77.28
47374;BME280;33123;50.118;10.272;2023-02-03T00:03:42;98529.72;;;7.79;77.51
47374;BME280;33123;50.118;10.272;2023-02-03T00:06:08;98526.88;;;7.87;77.57
47374;BME280;33123;50.118;10.272;2023-02-03T00:08:35;98526.72;;;7.76;78.05
47374;BME280;33123;50.118;10.272;2023-02-03T00:11:05;98534.16;;;7.85;77.60
47374;BME280;33123;50.118;10.272;2023-02-03T00:13:32;98533.75;;;7.88;77.32
47374;BME280;33123;50.118;10.272;2023-02-03T00:15:59;98536.56;;;7.87;77.25
47374;BME280;33123;50.118;10.272;2023-02-03T00:18:26;98543.22;;;7.89;77.62
47374;BME280;33123;50.118;10.272;2023-02-03T00:20:53;98535.94;;;7.91;77.28
47374;BME280;33123;50.118;10.272;2023-02-03T00:23:20;98528.50;;;7.88;77.79
47374;BME280;33123;50.118;10.272;2023-02-03T00:25:46;98521.63;;;7.87;77.37
47374;BME280;33123;50.118;10.272;2023-02-03T00:28:14;98506.34;;;7.71;78.44
47374;BME280;33123;50.118;10.272;2023-02-03T00:30:41;98514.63;;;7.68;77.90
47374;BME280;33123;50.118;10.272;2023-02-03T00:33:07;98507.09;;;7.85;77.82
47374;BME280;33123;50.118;10.272;2023-02-03T00:35:36;98514.75;;;7.86;77.69
47374;BME280;33123;50.118;10.272;2023-02-03T00:38:03;98507.06;;;7.91;77.71
47374;BME280;33123;50.118;10.272;2023-02-03T00:40:30;98512.31;;;7.91;77.60
47374;BME280;33123;50.118;10.272;2023-02-03T00:42:57;98510.28;;;7.93;77.43
47374;BME280;33123;50.118;10.272;2023-02-03T00:45:24;98509.91;;;7.90;77.88
47374;BME280;33123;50.118;10.272;2023-02-03T00:47:51;98507.50;;;7.88;77.91
47374;BME280;33123;50.118;10.272;2023-02-03T00:50:18;98500.81;;;7.92;77.58
47374;BME280;33123;50.118;10.272;2023-02-03T00:52:44;98498.19;;;7.92;77.45
47374;BME280;33123;50.118;10.272;2023-02-03T00:55:11;98506.66;;;7.94;77.47
47374;BME280;33123;50.118;10.272;2023-02-03T00:57:37;98511.47;;;7.98;77.50
47374;BME280;33123;50.118;10.272;2023-02-03T01:00:05;98509.91;;;7.90;77.72
47374;BME280;33123;50.118;10.272;2023-02-03T01:02:33;98504.69;;;7.83;78.06
47374;BME280;33123;50.118;10.272;2023-02-03T01:05:00;98498.00;;;7.87;77.98
47374;BME280;33123;50.118;10.272;2023-02-03T01:07:30;98489.94;;;7.89;78.03
47374;BME280;33123;50.118;10.272;2023-02-03T01:09:56;98487.91;;;7.91;77.61
47374;BME280;33123;50.118;10.272;2023-02-03T01:12:23;98479.47;;;7.76;78.18
47374;BME280;33123;50.118;10.272;2023-02-03T01:14:49;98467.69;;;7.91;77.82
47374;BME280;33123;50.118;10.272;2023-02-03T01:17:16;98466.69;;;7.92;77.74
47374;BME280;33123;50.118;10.272;2023-02-03T01:19:44;98473.22;;;7.83;77.83
47374;BME280;33123;50.118;10.272;2023-02-03T01:22:10;98479.63;;;7.87;77.73
47374;BME280;33123;50.118;10.272;2023-02-03T01:24:37;98467.69;;;7.91;77.27
47374;BME280;33123;50.118;10.272;2023-02-03T01:27:04;98462.66;;;7.90;77.72
47374;BME280;33123;50.118;10.272;2023-02-03T01:29:30;98457.03;;;7.86;77.52
47374;BME280;33123;50.118;10.272;2023-02-03T01:31:57;98458.25;;;7.84;77.36
47374;BME280;33123;50.118;10.272;2023-02-03T01:34:24;98476.16;;;8.00;77.25
47374;BME280;33123;50.118;10.272;2023-02-03T01:36:52;98474.53;;;7.99;77.15
47374;BME280;33123;50.118;10.272;2023-02-03T01:39:18;98482.22;;;8.01;76.86
47374;BME280;33123;50.118;10.272;2023-02-03T01:41:45;98457.16;;;7.98;77.25
47374;BME280;33123;50.118;10.272;2023-02-03T01:44:38;98449.72;;;7.95;77.35
47374;BME280;33123;50.118;10.272;2023-02-03T01:47:09;98450.56;;;7.82;77.69
47374;BME280;33123;50.118;10.272;2023-02-03T01:49:37;98456.22;;;7.86;77.81
47374;BME280;33123;50.118;10.272;2023-02-03T01:52:07;98467.53;;;7.86;77.83
47374;BME280;33123;50.118;10.272;2023-02-03T01:54:37;98472.53;;;7.94;77.32
47374;BME280;33123;50.118;10.272;2023-02-03T01:57:10;98460.97;;;8.02;77.23
47374;BME280;33123;50.118;10.272;2023-02-03T01:59:38;98464.91;;;7.86;77.72
47374;BME280;33123;50.118;10.272;2023-02-03T02:02:06;98463.19;;;7.60;78.55
47374;BME280;33123;50.118;10.272;2023-02-03T02:04:36;98464.78;;;7.68;78.87
47374;BME280;33123;50.118;10.272;2023-02-03T02:07:07;98454.41;;;7.86;77.76
47374;BME280;33123;50.118;10.272;2023-02-03T02:09:35;98463.03;;;7.93;77.51
47374;BME280;33123;50.118;10.272;2023-02-03T02:12:01;98463.88;;;7.87;78.38
47374;BME280;33123;50.118;10.272;2023-02-03T02:14:28;98453.56;;;7.92;78.05
47374;BME280;33123;50.118;10.272;2023-02-03T02:16:58;98451.78;;;7.86;78.48
47374;BME280;33123;50.118;10.272;2023-02-03T02:19:57;98451.28;;;8.03;77.31
47374;BME280;33123;50.118;10.272;2023-02-03T02:22:38;98453.72;;;7.98;77.61
47374;BME280;33123;50.118;10.272;2023-02-03T02:25:30;98453.03;;;7.77;79.31
47374;BME280;33123;50.118;10.272;2023-02-03T02:28:43;98460.31;;;7.75;79.21
47374;BME280;33123;50.118;10.272;2023-02-03T02:31:45;98456.22;;;7.86;79.00
47374;BME280;33123;50.118;10.272;2023-02-03T02:34:21;98459.06;;;7.84;79.14
47374;BME280;33123;50.118;10.272;2023-02-03T02:36:57;98465.47;;;7.95;78.62
47374;BME280;33123;50.118;10.272;2023-02-03T02:39:32;98471.94;;;7.92;78.84
47374;BME280;33123;50.118;10.272;2023-02-03T02:42:06;98468.09;;;7.95;78.90
47374;BME280;33123;50.118;10.272;2023-02-03T02:44:40;98448.53;;;7.91;78.50
47374;BME280;33123;50.118;10.272;2023-02-03T02:47:16;98452.22;;;7.83;79.33
47374;BME280;33123;50.118;10.272;2023-02-03T02:49:47;98447.72;;;7.90;78.99
47374;BME280;33123;50.118;10.272;2023-02-03T02:52:17;98450.75;;;7.87;79.00
47374;BME280;33123;50.118;10.272;2023-02-03T02:54:47;98461.03;;;7.96;78.61
47374;BME280;33123;50.118;10.272;2023-02-03T02:57:17;98475.22;;;7.81;79.25
47374;BME280;33123;50.118;10.272;2023-02-03T02:59:46;98470.31;;;7.91;78.97
47374;BME280;33123;50.118;10.272;2023-02-03T03:02:14;98458.44;;;7.89;78.28
47374;BME280;33123;50.118;10.272;2023-02-03T03:04:43;98447.53;;;7.85;79.14
47374;BME280;33123;50.118;10.272;2023-02-03T03:07:14;98446.25;;;8.01;78.14
47374;BME280;33123;50.118;10.272;2023-02-03T03:09:45;98447.06;;;8.02;78.06
47374;BME280;33123;50.118;10.272;2023-02-03T03:12:16;98442.84;;;8.01;77.99
47374;BME280;33123;50.118;10.272;2023-02-03T03:14:47;98444.97;;;7.79;78.88
47374;BME280;33123;50.118;10.272;2023-02-03T03:17:22;98440.44;;;7.92;78.41
47374;BME280;33123;50.118;10.272;2023-02-03T03:19:53;98452.13;;;7.97;78.12
47374;BME280;33123;50.118;10.272;2023-02-03T03:22:24;98442.44;;;7.97;78.16
47374;BME280;33123;50.118;10.272;2023-02-03T03:24:58;98437.94;;;8.04;77.90
47374;BME280;33123;50.118;10.272;2023-02-03T03:27:29;98408.81;;;7.81;78.14
47374;BME280;33123;50.118;10.272;2023-02-03T03:29:59;98428.50;;;7.97;77.94
47374;BME280;33123;50.118;10.272;2023-02-03T03:32:28;98417.88;;;7.85;78.36
47374;BME280;33123;50.118;10.272;2023-02-03T03:34:57;98420.72;;;7.83;78.55
47374;BME280;33123;50.118;10.272;2023-02-03T03:37:31;98417.78;;;7.66;78.71
47374;BME280;33123;50.118;10.272;2023-02-03T03:40:03;98420.91;;;7.88;78.22
47374;BME280;33123;50.118;10.272;2023-02-03T03:42:36;98410.19;;;7.90;78.01
47374;BME280;33123;50.118;10.272;2023-02-03T03:45:08;98416.78;;;7.99;77.57
47374;BME280;33123;50.118;10.272;2023-02-03T03:47:42;98423.44;;;8.02;77.78
47374;BME280;33123;50.118;10.272;2023-02-03T03:50:13;98411.78;;;7.91;78.33
47374;BME280;33123;50.118;10.272;2023-02-03T03:52:42;98413.59;;;7.90;78.04
47374;BME280;33123;50.118;10.272;2023-02-03T03:55:12;98410.94;;;7.97;78.05
47374;BME280;33123;50.118;10.272;2023-02-03T03:57:42;98413.16;;;8.00;78.21
47374;BME280;33123;50.118;10.272;2023-02-03T04:00:13;98426.06;;;8.02;78.18
47374;BME280;33123;50.118;10.272;2023-02-03T04:02:44;98413.72;;;8.02;78.12
47374;BME280;33123;50.118;10.272;2023-02-03T04:05:12;98403.69;;;7.92;78.90
47374;BME280;33123;50.118;10.272;2023-02-03T04:07:41;98410.53;;;8.00;78.45
47374;BME280;33123;50.118;10.272;2023-02-03T04:10:15;98397.28;;;7.88;79.12
47374;BME280;33123;50.118;10.272;2023-02-03T04:12:43;98386.00;;;7.81;79.70
47374;BME280;33123;50.118;10.272;2023-02-03T04:15:09;98387.59;;;7.89;79.68
47374;BME280;33123;50.118;10.272;2023-02-03T04:17:36;98371.34;;;7.99;78.95
47374;BME280;33123;50.118;10.272;2023-02-03T04:20:05;98376.69;;;7.85;80.24
47374;BME280;33123;50.118;10.272;2023-02-03T04:22:32;98367.28;;;7.71;79.55
47374;BME280;33123;50.118;10.272;2023-02-03T04:24:58;98413.78;;;7.96;79.82
47374;BME280;33123;50.118;10.272;2023-02-03T04:27:25;98404.53;;;7.86;79.52
47374;BME280;33123;50.118;10.272;2023-02-03T04:29:52;98421.19;;;8.05;78.85
47374;BME280;33123;50.118;10.272;2023-02-03T04:32:19;98399.59;;;8.03;79.38
47374;BME280;33123;50.118;10.272;2023-02-03T04:34:45;98395.53;;;8.07;79.12
47374;BME280;33123;50.118;10.272;2023-02-03T04:37:13;98393.16;;;7.99;79.12
47374;BME280;33123;50.118;10.272;2023-02-03T04:39:40;98387.41;;;7.77;80.45
47374;BME280;33123;50.118;10.272;2023-02-03T04:42:07;98388.34;;;7.96;79.79
47374;BME280;33123;50.118;10.272;2023-02-03T04:44:33;98403.34;;;7.82;80.09
47374;BME280;33123;50.118;10.272;2023-02-03T04:47:00;98414.22;;;7.86;80.19
47374;BME280;33123;50.118;10.272;2023-02-03T04:49:26;98420.63;;;7.97;79.24
47374;BME280;33123;50.118;10.272;2023-02-03T04:51:53;98404.31;;;7.94;79.53
47374;BME280;33123;50.118;10.272;2023-02-03T04:54:21;98390.34;;;8.01;79.18
47374;BME280;33123;50.118;10.272;2023-02-03T04:56:47;98385.53;;;7.91;79.22
47374;BME280;33123;50.118;10.272;2023-02-03T04:59:14;98395.41;;;7.96;79.15
47374;BME280;33123;50.118;10.272;2023-02-03T05:01:41;98409.28;;;8.03;78.80
47374;BME280;33123;50.118;10.272;2023-02-03T05:04:07;98410.25;;;8.08;78.43
47374;BME280;33123;50.118;10.272;2023-02-03T05:06:34;98405.81;;;8.09;78.29
47374;BME280;33123;50.118;10.272;2023-02-03T05:09:01;98393.06;;;8.12;78.26
47374;BME280;33123;50.118;10.272;2023-02-03T05:11:29;98390.28;;;8.07;78.61
47374;BME280;33123;50.118;10.272;2023-02-03T05:13:55;98392.84;;;8.14;77.73
47374;BME280;33123;50.118;10.272;2023-02-03T05:16:22;98392.63;;;8.15;77.95
47374;BME280;33123;50.118;10.272;2023-02-03T05:18:49;98402.16;;;8.16;78.21
47374;BME280;33123;50.118;10.272;2023-02-03T05:21:16;98407.09;;;8.00;78.48
47374;BME280;33123;50.118;10.272;2023-02-03T05:23:42;98403.75;;;8.17;78.32
47374;BME280;33123;50.118;10.272;2023-02-03T05:26:09;98391.03;;;8.14;78.33
47374;BME280;33123;50.118;10.272;2023-02-03T05:28:37;98385.56;;;8.16;78.02
47374;BME280;33123;50.118;10.272;2023-02-03T05:31:04;98366.75;;;8.19;78.28
47374;BME280;33123;50.118;10.272;2023-02-03T05:33:31;98365.81;;;8.13;78.36
47374;BME280;33123;50.118;10.272;2023-02-03T05:35:58;98336.41;;;7.98;78.79
47374;BME280;33123;50.118;10.272;2023-02-03T05:38:24;98332.91;;;8.11;78.30
47374;BME280;33123;50.118;10.272;2023-02-03T05:40:52;98338.63;;;8.01;78.87
47374;BME280;33123;50.118;10.272;2023-02-03T05:43:37;98337.22;;;7.99;78.87
47374;BME280;33123;50.118;10.272;2023-02-03T05:46:05;98352.09;;;8.11;78.26
47374;BME280;33123;50.118;10.272;2023-02-03T05:48:32;98345.38;;;8.15;78.26
47374;BME280;33123;50.118;10.272;2023-02-03T05:50:59;98352.38;;;7.97;78.16
47374;BME280;33123;50.118;10.272;2023-02-03T05:53:27;98319.69;;;7.92;78.35
47374;BME280;33123;50.118;10.272;2023-02-03T05:55:53;98334.66;;;7.92;78.15
47374;BME280;33123;50.118;10.272;2023-02-03T05:58:20;98313.19;;;8.02;77.71
47374;BME280;33123;50.118;10.272;2023-02-03T06:00:48;98322.81;;;8.08;78.11
47374;BME280;33123;50.118;10.272;2023-02-03T06:03:15;98325.50;;;8.01;78.21
47374;BME280;33123;50.118;10.272;2023-02-03T06:05:42;98298.94;;;7.91;78.09
47374;BME280;33123;50.118;10.272;2023-02-03T06:08:09;98294.66;;;7.97;77.38
47374;BME280;33123;50.118;10.272;2023-02-03T06:10:36;98333.84;;;7.91;77.91
47374;BME280;33123;50.118;10.272;2023-02-03T06:13:08;98348.31;;;8.01;77.90
47374;BME280;33123;50.118;10.272;2023-02-03T06:15:35;98337.22;;;7.99;78.30
47374;BME280;33123;50.118;10.272;2023-02-03T06:18:03;98317.16;;;8.11;77.77
47374;BME280;33123;50.118;10.272;2023-02-03T06:20:30;98326.59;;;7.87;78.15
47374;BME280;33123;50.118;10.272;2023-02-03T06:22:56;98317.56;;;7.83;77.80
47374;BME280;33123;50.118;10.272;2023-02-03T06:25:23;98313.97;;;8.02;77.79
47374;BME280;33123;50.118;10.272;2023-02-03T06:27:49;98327.97;;;7.96;77.53
47374;BME280;33123;50.118;10.272;2023-02-03T06:30:17;98297.16;;;8.10;76.98
47374;BME280;33123;50.118;10.272;2023-02-03T06:32:44;98308.31;;;8.05;77.17
47374;BME280;33123;50.118;10.272;2023-02-03T06:35:12;98330.81;;;8.19;77.04
47374;BME280;33123;50.118;10.272;2023-02-03T06:37:39;98334.84;;;8.22;76.59
47374;BME280;33123;50.118;10.272;2023-02-03T06:40:06;98321.63;;;8.04;76.95
47374;BME280;33123;50.118;10.272;2023-02-03T06:42:33;98345.91;;;8.24;76.33
47374;BME280;33123;50.118;10.272;2023-02-03T06:44:59;98338.44;;;8.28;76.17
47374;BME280;33123;50.118;10.272;2023-02-03T06:47:26;98317.03;;;8.24;76.31
47374;BME280;33123;50.118;10.272;2023-02-03T06:49:52;98313.00;;;8.21;76.31
47374;BME280;33123;50.118;10.272;2023-02-03T06:52:20;98320.19;;;8.08;76.67
47374;BME280;33123;50.118;10.272;2023-02-03T06:54:47;98318.47;;;8.20;76.83
47374;BME280;33123;50.118;10.272;2023-02-03T06:57:13;98321.56;;;8.17;76.65
47374;BME280;33123;50.118;10.272;2023-02-03T06:59:40;98329.34;;;7.99;76.86
47374;BME280;33123;50.118;10.272;2023-02-03T07:02:08;98328.75;;;8.21;76.57
47374;BME280;33123;50.118;10.272;2023-02-03T07:04:35;98319.88;;;8.23;76.52
47374;BME280;33123;50.118;10.272;2023-02-03T07:07:03;98323.94;;;8.18;76.62
47374;BME280;33123;50.118;10.272;2023-02-03T07:09:31;98332.22;;;8.22;76.36
47374;BME280;33123;50.118;10.272;2023-02-03T07:11:57;98320.47;;;8.25;76.34
47374;BME280;33123;50.118;10.272;2023-02-03T07:14:24;98321.03;;;8.27;76.04
47374;BME280;33123;50.118;10.272;2023-02-03T07:16:50;98298.22;;;8.02;76.36
47374;BME280;33123;50.118;10.272;2023-02-03T07:19:18;98330.31;;;8.29;76.00
47374;BME280;33123;50.118;10.272;2023-02-03T07:21:45;98329.72;;;8.27;75.93
47374;BME280;33123;50.118;10.272;2023-02-03T07:24:11;98328.88;;;8.33;75.82
47374;BME280;33123;50.118;10.272;2023-02-03T07:26:40;98316.00;;;8.25;75.91
47374;BME280;33123;50.118;10.272;2023-02-03T07:29:06;98324.81;;;8.37;75.73
47374;BME280;33123;50.118;10.272;2023-02-03T07:31:33;98322.19;;;8.37;75.60
47374;BME280;33123;50.118;10.272;2023-02-03T07:34:00;98322.28;;;8.24;75.29
47374;BME280;33123;50.118;10.272;2023-02-03T07:36:27;98323.88;;;8.25;75.79
47374;BME280;33123;50.118;10.272;2023-02-03T07:38:54;98338.16;;;8.11;75.89
47374;BME280;33123;50.118;10.272;2023-02-03T07:41:20;98323.47;;;8.28;75.04
47374;BME280;33123;50.118;10.272;2023-02-03T07:43:49;98336.34;;;8.36;74.88
47374;BME280;33123;50.118;10.272;2023-02-03T07:46:16;98340.16;;;8.40;74.94
47374;BME280;33123;50.118;10.272;2023-02-03T07:48:42;98352.91;;;8.37;74.81
47374;BME280;33123;50.118;10.272;2023-02-03T07:51:09;98331.69;;;8.38;74.67
47374;BME280;33123;50.118;10.272;2023-02-03T07:53:35;98336.53;;;8.35;74.50
47374;BME280;33123;50.118;10.272;2023-02-03T07:56:03;98346.44;;;8.33;75.05
47374;BME280;33123;50.118;10.272;2023-02-03T07:58:30;98324.41;;;8.40;74.95
47374;BME280;33123;50.118;10.272;2023-02-03T08:01:01;98347.41;;;8.45;74.63
47374;BME280;33123;50.118;10.272;2023-02-03T08:03:34;98356.16;;;8.39;74.53
47374;BME280;33123;50.118;10.272;2023-02-03T08:06:01;98370.06;;;8.33;74.81
47374;BME280;33123;50.118;10.272;2023-02-03T08:08:28;98348.03;;;8.40;74.43
47374;BME280;33123;50.118;10.272;2023-02-03T08:10:54;98333.75;;;8.30;74.22
47374;BME280;33123;50.118;10.272;2023-02-03T08:13:21;98354.94;;;8.35;74.66
47374;BME280;33123;50.118;10.272;2023-02-03T08:15:48;98354.13;;;8.34;74.65
47374;BME280;33123;50.118;10.272;2023-02-03T08:18:16;98334.25;;;8.45;74.57
47374;BME280;33123;50.118;10.272;2023-02-03T08:20:42;98330.69;;;8.39;74.28
47374;BME280;33123;50.118;10.272;2023-02-03T08:23:09;98344.38;;;8.41;74.11
47374;BME280;33123;50.118;10.272;2023-02-03T08:25:36;98353.44;;;8.45;73.82
47374;BME280;33123;50.118;10.272;2023-02-03T08:28:03;98336.25;;;8.50;73.72
47374;BME280;33123;50.118;10.272;2023-02-03T08:30:29;98335.38;;;8.56;74.00
47374;BME280;33123;50.118;10.272;2023-02-03T08:32:56;98339.59;;;8.38;73.60
47374;BME280;33123;50.118;10.272;2023-02-03T08:35:24;98331.00;;;8.50;74.01
47374;BME280;33123;50.118;10.272;2023-02-03T08:37:51;98327.69;;;8.54;73.43
47374;BME280;33123;50.118;10.272;2023-02-03T08:40:19;98320.19;;;8.33;73.43
47374;BME280;33123;50.118;10.272;2023-02-03T08:42:45;98334.78;;;8.54;73.04
47374;BME280;33123;50.118;10.272;2023-02-03T08:45:12;98337.56;;;8.34;73.47
47374;BME280;33123;50.118;10.272;2023-02-03T08:47:38;98346.31;;;8.53;73.45
47374;BME280;33123;50.118;10.272;2023-02-03T08:50:07;98340.66;;;8.49;73.22
47374;BME280;33123;50.118;10.272;2023-02-03T08:52:35;98336.97;;;8.32;73.78
47374;BME280;33123;50.118;10.272;2023-02-03T08:55:02;98321.94;;;8.45;73.00
47374;BME280;33123;50.118;10.272;2023-02-03T08:57:31;98341.22;;;8.58;73.17
47374;BME280;33123;50.118;10.272;2023-02-03T08:59:58;98337.91;;;8.44;72.90
47374;BME280;33123;50.118;10.272;2023-02-03T09:02:24;98337.06;;;8.50;72.82
47374;BME280;33123;50.118;10.272;2023-02-03T09:04:51;98339.44;;;8.52;73.04
47374;BME280;33123;50.118;10.272;2023-02-03T09:07:18;98342.31;;;8.50;72.89
47374;BME280;33123;50.118;10.272;2023-02-03T09:09:46;98323.00;;;8.38;72.90
47374;BME280;33123;50.118;10.272;2023-02-03T09:12:13;98320.19;;;8.33;72.78
47374;BME280;33123;50.118;10.272;2023-02-03T09:14:39;98322.34;;;8.42;73.28
47374;BME280;33123;50.118;10.272;2023-02-03T09:17:06;98315.66;;;8.46;73.07
47374;BME280;33123;50.118;10.272;2023-02-03T09:19:33;98312.88;;;8.60;72.78
47374;BME280;33123;50.118;10.272;2023-02-03T09:22:00;98321.56;;;8.60;72.77
47374;BME280;33123;50.118;10.272;2023-02-03T09:24:26;98306.03;;;8.59;72.71
47374;BME280;33123;50.118;10.272;2023-02-03T09:26:55;98317.72;;;8.63;72.42
47374;BME280;33123;50.118;10.272;2023-02-03T09:29:22;98303.84;;;8.56;72.40
47374;BME280;33123;50.118;10.272;2023-02-03T09:31:49;98313.41;;;8.68;72.06
47374;BME280;33123;50.118;10.272;2023-02-03T09:34:17;98321.63;;;8.54;72.07
47374;BME280;33123;50.118;10.272;2023-02-03T09:36:44;98311.88;;;8.61;71.69
47374;BME280;33123;50.118;10.272;2023-02-03T09:39:11;98316.53;;;8.77;71.71
47374;BME280;33123;50.118;10.272;2023-02-03T09:42:03;98317.00;;;8.74;71.62
47374;BME280;33123;50.118;10.272;2023-02-03T09:44:41;98291.44;;;8.63;72.21
47374;BME280;33123;50.118;10.272;2023-02-03T09:47:14;98297.13;;;8.60;71.70
47374;BME280;33123;50.118;10.272;2023-02-03T09:49:43;98294.66;;;8.83;71.82
47374;BME280;33123;50.118;10.272;2023-02-03T09:52:13;98299.31;;;8.81;71.43
47374;BME280;33123;50.118;10.272;2023-02-03T09:54:47;98294.66;;;8.83;71.69
47374;BME280;33123;50.118;10.272;2023-02-03T09:57:20;98282.31;;;8.84;71.74
47374;BME280;33123;50.118;10.272;2023-02-03T09:59:47;98266.50;;;8.72;71.26
47374;BME280;33123;50.118;10.272;2023-02-03T10:02:27;98286.47;;;8.91;71.23
47374;BME280;33123;50.118;10.272;2023-02-03T10:05:02;98290.50;;;8.94;70.89
47374;BME280;33123;50.118;10.272;2023-02-03T10:07:39;98302.53;;;9.02;70.80
47374;BME280;33123;50.118;10.272;2023-02-03T10:10:16;98280.84;;;8.88;70.71
47374;BME280;33123;50.118;10.272;2023-02-03T10:13:04;98271.72;;;8.90;70.63
47374;BME280;33123;50.118;10.272;2023-02-03T10:15:44;98285.88;;;9.08;70.55
47374;BME280;33123;50.118;10.272;2023-02-03T10:18:17;98273.25;;;8.80;70.58
47374;BME280;33123;50.118;10.272;2023-02-03T10:20:48;98264.69;;;9.03;70.35
47374;BME280;33123;50.118;10.272;2023-02-03T10:23:19;98261.88;;;9.16;69.87
47374;BME280;33123;50.118;10.272;2023-02-03T10:25:50;98247.72;;;9.17;70.17
47374;BME280;33123;50.118;10.272;2023-02-03T10:28:22;98242.19;;;9.07;69.56
47374;BME280;33123;50.118;10.272;2023-02-03T10:30:54;98246.78;;;9.11;69.71
47374;BME280;33123;50.118;10.272;2023-02-03T10:33:24;98231.53;;;9.02;69.51
47374;BME280;33123;50.118;10.272;2023-02-03T10:35:53;98224.06;;;9.17;69.03
47374;BME280;33123;50.118;10.272;2023-02-03T10:38:40;98226.22;;;9.20;69.12
47374;BME280;33123;50.118;10.272;2023-02-03T10:41:10;98228.22;;;9.36;69.27
47374;BME280;33123;50.118;10.272;2023-02-03T10:43:38;98240.84;;;9.46;68.92
47374;BME280;33123;50.118;10.272;2023-02-03T10:46:17;98228.34;;;9.41;68.22
47374;BME280;33123;50.118;10.272;2023-02-03T10:48:44;98241.38;;;9.36;68.28
47374;BME280;33123;50.118;10.272;2023-02-03T10:51:17;98243.84;;;9.49;68.30
47374;BME280;33123;50.118;10.272;2023-02-03T10:53:45;98225.84;;;9.46;67.89
47374;BME280;33123;50.118;10.272;2023-02-03T10:56:14;98206.50;;;9.41;68.28
47374;BME280;33123;50.118;10.272;2023-02-03T10:58:48;98234.75;;;9.34;68.36
47374;BME280;33123;50.118;10.272;2023-02-03T11:01:17;98225.84;;;9.46;68.07
47374;BME280;33123;50.118;10.272;2023-02-03T11:03:54;98215.75;;;9.43;68.41
47374;BME280;33123;50.118;10.272;2023-02-03T11:06:23;98197.63;;;9.12;67.99
47374;BME280;33123;50.118;10.272;2023-02-03T11:08:51;98197.59;;;9.53;68.09
47374;BME280;33123;50.118;10.272;2023-02-03T11:11:23;98170.91;;;9.38;68.11
47374;BME280;33123;50.118;10.272;2023-02-03T11:14:09;98216.16;;;9.59;67.61
47374;BME280;33123;50.118;10.272;2023-02-03T11:16:37;98208.38;;;9.75;67.20
47374;BME280;33123;50.118;10.272;2023-02-03T11:19:09;98196.25;;;9.74;67.11
47374;BME280;33123;50.118;10.272;2023-02-03T11:21:43;98200.84;;;9.67;66.86
47374;BME280;33123;50.118;10.272;2023-02-03T11:24:17;98188.59;;;9.49;66.99
47374;BME280;33123;50.118;10.272;2023-02-03T11:26:48;98170.97;;;9.62;66.45
47374;BME280;33123;50.118;10.272;2023-02-03T11:29:21;98186.09;;;9.78;67.25
47374;BME280;33123;50.118;10.272;2023-02-03T11:31:51;98199.00;;;9.79;66.49
47374;BME280;33123;50.118;10.272;2023-02-03T11:34:23;98212.53;;;9.83;66.94
47374;BME280;33123;50.118;10.272;2023-02-03T11:36:50;98205.06;;;9.80;66.42
47374;BME280;33123;50.118;10.272;2023-02-03T11:39:22;98204.03;;;9.81;66.90
47374;BME280;33123;50.118;10.272;2023-02-03T11:41:51;98213.31;;;9.72;67.12
47374;BME280;33123;50.118;10.272;2023-02-03T11:44:22;98198.22;;;9.67;67.32
47374;BME280;33123;50.118;10.272;2023-02-03T11:46:53;98203.81;;;9.71;67.74
47374;BME280;33123;50.118;10.272;2023-02-03T11:50:01;98180.59;;;9.68;67.83
47374;BME280;33123;50.118;10.272;2023-02-03T11:52:53;98176.78;;;9.64;68.66
47374;BME280;33123;50.118;10.272;2023-02-03T11:55:45;98171.22;;;9.72;68.43
47374;BME280;33123;50.118;10.272;2023-02-03T11:58:48;98158.84;;;9.61;69.48
47374;BME280;33123;50.118;10.272;2023-02-03T12:01:27;98166.84;;;9.66;70.22
47374;BME280;33123;50.118;10.272;2023-02-03T12:04:15;98171.75;;;9.50;70.48
47374;BME280;33123;50.118;10.272;2023-02-03T12:06:57;98184.06;;;9.38;70.80
47374;BME280;33123;50.118;10.272;2023-02-03T12:09:33;98186.41;;;9.58;71.22
47374;BME280;33123;50.118;10.272;2023-02-03T12:12:28;98181.03;;;9.65;70.99
47374;BME280;33123;50.118;10.272;2023-02-03T12:15:05;98179.91;;;9.61;70.98
47374;BME280;33123;50.118;10.272;2023-02-03T12:17:58;98158.25;;;9.59;70.98
47374;BME280;33123;50.118;10.272;2023-02-03T12:20:40;98164.06;;;9.49;71.41
47374;BME280;33123;50.118;10.272;2023-02-03T12:23:21;98155.97;;;9.50;71.90
47374;BME280;33123;50.118;10.272;2023-02-03T12:26:04;98157.34;;;9.53;71.79
47374;BME280;33123;50.118;10.272;2023-02-03T12:28:44;98154.31;;;9.26;71.72
47374;BME280;33123;50.118;10.272;2023-02-03T12:31:15;98148.13;;;9.20;71.81
47374;BME280;33123;50.118;10.272;2023-02-03T12:33:49;98185.22;;;9.42;71.77
47374;BME280;33123;50.118;10.272;2023-02-03T12:36:21;98167.94;;;9.23;71.67
47374;BME280;33123;50.118;10.272;2023-02-03T12:38:55;98154.69;;;9.30;72.06
47374;BME280;33123;50.118;10.272;2023-02-03T12:41:25;98167.03;;;9.29;72.70
47374;BME280;33123;50.118;10.272;2023-02-03T12:43:57;98171.03;;;9.32;72.54
47374;BME280;33123;50.118;10.272;2023-02-03T12:46:27;98172.84;;;9.19;72.68
47374;BME280;33123;50.118;10.272;2023-02-03T12:48:59;98172.72;;;9.26;72.84
47374;BME280;33123;50.118;10.272;2023-02-03T12:51:37;98191.28;;;9.31;72.98
47374;BME280;33123;50.118;10.272;2023-02-03T12:54:13;98171.63;;;9.34;72.84
47374;BME280;33123;50.118;10.272;2023-02-03T12:56:43;98151.56;;;9.33;73.01
47374;BME280;33123;50.118;10.272;2023-02-03T12:59:16;98156.75;;;9.39;72.96
47374;BME280;33123;50.118;10.272;2023-02-03T13:01:48;98163.38;;;9.30;73.90
47374;BME280;33123;50.118;10.272;2023-02-03T13:04:25;98140.50;;;9.31;74.21
47374;BME280;33123;50.118;10.272;2023-02-03T13:07:00;98119.97;;;9.09;73.94
47374;BME280;33123;50.118;10.272;2023-02-03T13:09:33;98120.38;;;9.24;74.10
47374;BME280;33123;50.118;10.272;2023-02-03T13:12:07;98102.06;;;9.30;74.71
47374;BME280;33123;50.118;10.272;2023-02-03T13:14:41;98097.25;;;9.15;74.84
47374;BME280;33123;50.118;10.272;2023-02-03T13:17:15;98092.09;;;9.20;75.13